createdAt,value
2023-03-31T00:01:08.323Z,1.40
2023-03-31T00:03:38.712Z,2.00
2023-03-31T00:06:06.327Z,2.30
2023-03-31T00:08:36.940Z,2.00
2023-03-31T00:11:07.422Z,2.60
2023-03-31T00:13:36.617Z,1.77
2023-03-31T00:16:08.699Z,2.50
2023-03-31T00:18:37.092Z,1.67
2023-03-31T00:21:08.375Z,2.50
2023-03-31T00:23:35.538Z,1.83
2023-03-31T00:26:02.484Z,1.60
2023-03-31T00:28:29.537Z,2.10
2023-03-31T00:31:02.259Z,1.80
2023-03-31T00:33:29.863Z,1.87
2023-03-31T00:35:57.864Z,2.27
2023-03-31T00:38:24.778Z,1.93
2023-03-31T00:40:53.808Z,2.20
2023-03-31T00:43:38.233Z,1.87
2023-03-31T00:46:30.970Z,1.83
2023-03-31T00:48:58.737Z,2.23
2023-03-31T00:51:30.141Z,1.70
2023-03-31T00:54:02.253Z,1.70
2023-03-31T00:56:34.842Z,1.23
2023-03-31T00:59:04.997Z,2.00
2023-03-31T01:01:32.196Z,1.47
2023-03-31T01:03:59.333Z,1.50
2023-03-31T01:06:30.791Z,2.17
2023-03-31T01:08:58.238Z,1.60
2023-03-31T01:11:27.670Z,1.50
2023-03-31T01:13:56.824Z,1.50
2023-03-31T01:16:23.829Z,2.03
2023-03-31T01:18:51.195Z,1.83
2023-03-31T01:21:57.053Z,1.80
2023-03-31T01:24:53.502Z,1.80
2023-03-31T01:27:28.165Z,1.80
2023-03-31T01:30:16.830Z,2.07
2023-03-31T01:33:23.677Z,2.20
2023-03-31T01:36:09.161Z,1.43
2023-03-31T01:38:45.239Z,1.40
2023-03-31T01:41:37.718Z,1.83
2023-03-31T01:44:29.373Z,1.83
2023-03-31T01:47:18.323Z,1.30
2023-03-31T01:50:05.068Z,1.57
2023-03-31T01:52:38.120Z,1.70
2023-03-31T01:55:08.957Z,2.10
2023-03-31T01:58:03.811Z,1.57
2023-03-31T02:00:37.451Z,1.20
2023-03-31T02:03:34.388Z,3.13
2023-03-31T02:06:13.316Z,1.77
2023-03-31T02:08:48.471Z,1.40
2023-03-31T02:11:16.361Z,2.00
2023-03-31T02:13:47.447Z,1.37
2023-03-31T02:16:24.292Z,1.80
2023-03-31T02:19:02.255Z,1.43
2023-03-31T02:21:35.040Z,1.43
2023-03-31T02:24:07.153Z,1.17
2023-03-31T02:26:45.838Z,1.60
2023-03-31T02:29:12.858Z,1.53
2023-03-31T02:32:10.240Z,1.17
2023-03-31T02:34:37.493Z,1.37
2023-03-31T02:37:04.414Z,1.00
2023-03-31T02:39:35.636Z,1.50
2023-03-31T02:42:07.396Z,1.37
2023-03-31T02:44:39.757Z,2.10
2023-03-31T02:47:10.922Z,1.70
2023-03-31T02:49:42.481Z,1.67
2023-03-31T02:52:40.491Z,1.23
2023-03-31T02:55:31.534Z,1.37
2023-03-31T02:58:27.234Z,1.20
2023-03-31T03:01:02.715Z,1.50
2023-03-31T03:04:06.281Z,1.37
2023-03-31T03:07:05.527Z,1.07
2023-03-31T03:10:01.480Z,1.67
2023-03-31T03:12:58.837Z,1.67
2023-03-31T03:15:34.465Z,1.67
2023-03-31T03:18:02.191Z,1.50
2023-03-31T03:20:29.128Z,1.40
2023-03-31T03:22:56.101Z,1.47
2023-03-31T03:25:24.364Z,1.67
2023-03-31T03:27:53.074Z,1.33
2023-03-31T03:30:20.160Z,1.30
2023-03-31T03:32:47.226Z,1.33
2023-03-31T03:35:14.473Z,1.33
2023-03-31T03:37:41.344Z,1.10
2023-03-31T03:40:09.554Z,1.53
2023-03-31T03:42:36.600Z,2.17
2023-03-31T03:45:03.826Z,1.70
2023-03-31T03:47:30.839Z,1.90
2023-03-31T03:49:57.837Z,1.90
2023-03-31T03:52:24.774Z,1.93
2023-03-31T03:54:51.681Z,1.60
2023-03-31T03:57:18.623Z,1.27
2023-03-31T03:59:45.610Z,1.90
2023-03-31T04:02:12.571Z,1.90
2023-03-31T04:04:39.603Z,1.40
2023-03-31T04:07:06.542Z,2.13
2023-03-31T04:09:33.424Z,1.73
2023-03-31T04:12:00.994Z,1.80
2023-03-31T04:14:28.026Z,1.50
2023-03-31T04:16:56.446Z,1.73
2023-03-31T04:19:25.922Z,1.83
2023-03-31T04:22:02.639Z,1.47
2023-03-31T04:24:32.763Z,1.67
2023-03-31T04:27:00.938Z,1.90
2023-03-31T04:29:27.898Z,1.53
2023-03-31T04:31:59.225Z,1.50
2023-03-31T04:34:34.928Z,1.80
2023-03-31T04:37:03.074Z,2.10
2023-03-31T04:39:31.096Z,1.53
2023-03-31T04:42:00.889Z,2.33
2023-03-31T04:44:28.250Z,2.10
2023-03-31T04:46:56.105Z,1.93
2023-03-31T04:49:23.304Z,2.43
2023-03-31T04:51:50.584Z,2.00
2023-03-31T04:54:17.557Z,2.20
2023-03-31T04:56:44.599Z,2.47
2023-03-31T04:59:11.625Z,3.20
2023-03-31T05:01:38.570Z,3.37
2023-03-31T05:04:06.295Z,3.30
2023-03-31T05:06:33.788Z,3.90
2023-03-31T05:09:00.779Z,3.60
2023-03-31T05:11:29.011Z,3.00
2023-03-31T05:13:56.025Z,3.17
2023-03-31T05:16:23.032Z,3.70
2023-03-31T05:18:50.004Z,3.33
2023-03-31T05:21:20.679Z,4.53
2023-03-31T05:23:48.345Z,3.77
2023-03-31T05:26:15.880Z,3.87
2023-03-31T05:28:42.937Z,3.80
2023-03-31T05:31:11.361Z,3.40
2023-03-31T05:33:42.196Z,3.60
2023-03-31T05:36:15.391Z,3.40
2023-03-31T05:38:43.325Z,3.23
2023-03-31T05:41:11.858Z,3.20
2023-03-31T05:43:39.942Z,3.83
2023-03-31T05:46:07.360Z,4.10
2023-03-31T05:48:34.732Z,4.23
2023-03-31T05:51:02.144Z,3.80
2023-03-31T05:53:29.919Z,4.30
2023-03-31T05:55:59.583Z,3.77
2023-03-31T05:58:27.494Z,4.40
2023-03-31T06:01:19.787Z,4.53
2023-03-31T06:03:47.422Z,4.23
2023-03-31T06:06:16.414Z,3.60
2023-03-31T06:08:45.781Z,4.40
2023-03-31T06:11:19.538Z,5.10
2023-03-31T06:13:46.805Z,5.27
2023-03-31T06:16:15.596Z,4.23
2023-03-31T06:18:42.689Z,9.13
2023-03-31T06:21:19.409Z,5.13
2023-03-31T06:23:46.460Z,4.93
2023-03-31T06:26:19.088Z,4.70
2023-03-31T06:28:46.784Z,5.53
2023-03-31T06:31:18.301Z,5.77
2023-03-31T06:33:46.261Z,5.37
2023-03-31T06:36:16.813Z,5.50
2023-03-31T06:38:44.482Z,4.97
2023-03-31T06:41:14.845Z,5.37
2023-03-31T06:43:42.009Z,4.80
2023-03-31T06:46:09.742Z,4.83
2023-03-31T06:48:37.165Z,4.13
2023-03-31T06:51:06.680Z,4.00
2023-03-31T06:53:34.736Z,4.43
2023-03-31T06:56:01.781Z,5.00
2023-03-31T06:58:31.321Z,4.00
2023-03-31T07:01:01.746Z,4.87
2023-03-31T07:03:29.635Z,4.77
2023-03-31T07:05:56.982Z,5.77
2023-03-31T07:08:24.797Z,4.90
2023-03-31T07:10:58.834Z,4.80
2023-03-31T07:13:26.763Z,5.10
2023-03-31T07:15:54.160Z,6.17
2023-03-31T07:18:25.862Z,6.30
2023-03-31T07:20:53.297Z,5.30
2023-03-31T07:23:20.814Z,5.00
2023-03-31T07:25:48.230Z,5.00
2023-03-31T07:28:15.835Z,5.20
2023-03-31T07:30:43.192Z,3.90
2023-03-31T07:33:10.513Z,5.33
2023-03-31T07:35:41.688Z,4.50
2023-03-31T07:38:10.785Z,4.03
2023-03-31T07:40:38.568Z,5.10
2023-03-31T07:43:06.270Z,3.53
2023-03-31T07:45:34.278Z,3.80
2023-03-31T07:48:01.221Z,4.10
2023-03-31T07:50:28.226Z,3.20
2023-03-31T07:52:55.133Z,3.77
2023-03-31T07:55:23.656Z,5.00
2023-03-31T07:57:51.355Z,3.60
2023-03-31T08:00:18.993Z,3.23
2023-03-31T08:02:45.989Z,3.83
2023-03-31T08:05:16.462Z,3.40
2023-03-31T08:07:46.818Z,3.40
2023-03-31T08:10:18.654Z,3.80
2023-03-31T08:12:45.720Z,3.10
2023-03-31T08:15:13.015Z,3.00
2023-03-31T08:17:41.051Z,2.70
2023-03-31T08:20:10.465Z,2.50
2023-03-31T08:22:39.141Z,2.43
2023-03-31T08:25:08.342Z,1.93
2023-03-31T08:27:37.909Z,2.70
2023-03-31T08:30:07.904Z,2.50
2023-03-31T08:32:35.971Z,2.00
2023-03-31T08:35:03.568Z,1.77
2023-03-31T08:37:31.541Z,2.20
2023-03-31T08:39:58.713Z,1.67
2023-03-31T08:42:49.219Z,2.30
2023-03-31T08:45:18.922Z,1.97
2023-03-31T08:47:48.219Z,2.07
2023-03-31T08:50:24.998Z,2.13
2023-03-31T08:53:35.029Z,1.53
2023-03-31T08:56:08.781Z,1.60
2023-03-31T08:58:49.318Z,1.73
2023-03-31T09:01:56.854Z,2.07
2023-03-31T09:04:32.727Z,2.33
2023-03-31T09:07:37.035Z,2.27
2023-03-31T09:10:13.163Z,2.30
2023-03-31T09:13:21.891Z,2.00
2023-03-31T09:15:58.638Z,1.43
2023-03-31T09:18:37.880Z,1.97
2023-03-31T09:21:34.318Z,2.27
2023-03-31T09:24:23.671Z,2.23
2023-03-31T09:26:57.486Z,1.87
2023-03-31T09:29:45.823Z,2.40
2023-03-31T09:32:20.362Z,1.90
2023-03-31T09:34:53.980Z,2.07
2023-03-31T09:37:21.038Z,2.00
2023-03-31T09:39:47.962Z,2.03
2023-03-31T09:42:15.150Z,2.73
2023-03-31T09:44:46.829Z,2.17
2023-03-31T09:47:32.176Z,2.43
2023-03-31T09:49:59.532Z,2.50
2023-03-31T09:52:31.990Z,2.33
2023-03-31T09:55:03.254Z,1.80
2023-03-31T09:57:39.801Z,2.17
2023-03-31T10:00:17.802Z,2.97
2023-03-31T10:02:57.707Z,2.90
2023-03-31T10:05:28.467Z,2.57
2023-03-31T10:08:39.702Z,1.83
2023-03-31T10:11:10.100Z,2.23
2023-03-31T10:14:13.584Z,2.23
2023-03-31T10:16:47.868Z,2.20
2023-03-31T10:19:27.934Z,2.00
2023-03-31T10:22:09.734Z,1.87
2023-03-31T10:24:44.962Z,2.00
2023-03-31T10:27:28.896Z,1.47
2023-03-31T10:29:59.705Z,1.20
2023-03-31T10:32:31.876Z,1.47
2023-03-31T10:35:06.376Z,1.43
2023-03-31T10:37:36.438Z,1.50
2023-03-31T10:40:15.547Z,0.83
2023-03-31T10:42:47.833Z,0.87
2023-03-31T10:45:36.595Z,0.70
2023-03-31T10:48:09.539Z,1.50
2023-03-31T10:50:37.007Z,1.30
2023-03-31T10:53:14.207Z,0.70
2023-03-31T10:56:19.716Z,1.30
2023-03-31T10:59:05.727Z,1.03
2023-03-31T11:02:03.717Z,1.10
2023-03-31T11:04:55.979Z,1.40
2023-03-31T11:07:49.606Z,1.20
2023-03-31T11:10:34.985Z,1.30
2023-03-31T11:13:25.667Z,1.20
2023-03-31T11:16:02.970Z,1.43
2023-03-31T11:18:50.779Z,1.20
2023-03-31T11:21:43.453Z,1.40
2023-03-31T11:25:00.492Z,1.30
2023-03-31T11:28:07.286Z,1.37
2023-03-31T11:30:57.395Z,1.10
2023-03-31T11:33:44.094Z,1.40
2023-03-31T11:36:26.163Z,2.67
2023-03-31T11:39:29.445Z,1.60
2023-03-31T11:42:04.461Z,1.33
2023-03-31T11:44:47.061Z,1.40
2023-03-31T11:47:19.967Z,1.50
2023-03-31T11:49:55.740Z,1.33
2023-03-31T11:52:30.028Z,1.73
2023-03-31T11:55:04.891Z,1.40
2023-03-31T11:58:01.072Z,1.27
2023-03-31T12:00:41.274Z,1.27
2023-03-31T12:03:21.701Z,1.23
2023-03-31T12:06:02.808Z,1.60
2023-03-31T12:08:51.301Z,1.10
2023-03-31T12:12:04.376Z,1.10
2023-03-31T12:14:41.592Z,1.30
2023-03-31T12:17:14.718Z,1.60
2023-03-31T12:19:58.509Z,1.03
2023-03-31T12:22:34.510Z,1.10
2023-03-31T12:25:02.736Z,2.37
2023-03-31T12:27:42.866Z,1.20
2023-03-31T12:30:42.775Z,1.30
2023-03-31T12:33:21.812Z,1.70
2023-03-31T12:36:46.181Z,1.53
2023-03-31T12:39:51.530Z,1.27
2023-03-31T12:42:48.634Z,1.30
2023-03-31T12:45:36.069Z,1.63
2023-03-31T12:48:52.821Z,1.67
2023-03-31T12:51:30.386Z,1.43
2023-03-31T12:54:18.400Z,1.30
2023-03-31T12:57:03.189Z,1.47
2023-03-31T12:59:36.857Z,1.10
2023-03-31T13:02:10.129Z,1.40
2023-03-31T13:04:38.818Z,1.40
2023-03-31T13:07:33.908Z,1.33
2023-03-31T13:10:19.343Z,1.03
2023-03-31T13:13:04.807Z,0.90
2023-03-31T13:15:33.074Z,1.17
2023-03-31T13:18:06.602Z,1.00
2023-03-31T13:20:40.438Z,1.00
2023-03-31T13:23:26.062Z,1.10
2023-03-31T13:25:58.397Z,1.63
2023-03-31T13:28:47.040Z,1.33
2023-03-31T13:31:15.206Z,1.40
2023-03-31T13:34:01.768Z,1.37
2023-03-31T13:36:54.223Z,1.63
2023-03-31T13:40:06.842Z,1.70
2023-03-31T13:43:10.927Z,1.60
2023-03-31T13:46:23.480Z,1.40
2023-03-31T13:49:15.024Z,1.10
2023-03-31T13:51:57.891Z,1.50
2023-03-31T13:54:48.952Z,1.40
2023-03-31T13:57:46.675Z,1.77
2023-03-31T14:00:48.713Z,1.30
2023-03-31T14:03:52.461Z,1.27
2023-03-31T14:06:28.341Z,1.77
2023-03-31T14:09:06.405Z,1.70
2023-03-31T14:11:33.896Z,1.70
2023-03-31T14:14:18.975Z,1.60
2023-03-31T14:16:46.037Z,1.40
2023-03-31T14:19:43.882Z,1.57
2023-03-31T14:22:38.176Z,1.73
2023-03-31T14:25:20.046Z,1.63
2023-03-31T14:27:53.838Z,1.37
2023-03-31T14:30:35.515Z,1.27
2023-03-31T14:33:59.439Z,1.60
2023-03-31T14:36:29.482Z,1.43
2023-03-31T14:39:03.984Z,1.20
2023-03-31T14:41:31.166Z,1.43
2023-03-31T14:44:01.972Z,1.47
2023-03-31T14:46:35.528Z,1.50
2023-03-31T14:49:19.884Z,1.20
2023-03-31T14:51:46.979Z,1.10
2023-03-31T14:54:20.491Z,1.00
2023-03-31T14:56:53.682Z,0.90
2023-03-31T14:59:29.420Z,1.50
2023-03-31T15:02:02.743Z,1.67
2023-03-31T15:04:42.131Z,1.00
2023-03-31T15:07:10.870Z,1.20
2023-03-31T15:09:39.484Z,1.10
2023-03-31T15:12:15.168Z,1.10
2023-03-31T15:15:06.852Z,0.93
2023-03-31T15:17:41.395Z,1.00
2023-03-31T15:20:38.625Z,1.00
2023-03-31T15:23:27.600Z,0.90
2023-03-31T15:26:19.194Z,1.17
2023-03-31T15:28:56.992Z,1.10
2023-03-31T15:31:27.146Z,0.87
2023-03-31T15:33:54.534Z,1.13
2023-03-31T15:36:22.810Z,1.30
2023-03-31T15:38:59.116Z,0.90
2023-03-31T15:41:31.554Z,1.00
2023-03-31T15:44:37.858Z,1.20
2023-03-31T15:47:21.302Z,1.30
2023-03-31T15:49:58.941Z,1.50
2023-03-31T15:52:36.954Z,1.00
2023-03-31T15:55:25.403Z,1.33
2023-03-31T15:57:54.232Z,1.43
2023-03-31T16:00:41.080Z,1.20
2023-03-31T16:03:44.582Z,1.30
2023-03-31T16:06:37.024Z,1.83
2023-03-31T16:09:39.007Z,1.30
2023-03-31T16:12:16.197Z,1.00
2023-03-31T16:14:52.736Z,1.00
2023-03-31T16:17:30.962Z,0.80
2023-03-31T16:20:11.057Z,0.90
2023-03-31T16:22:45.380Z,0.50
2023-03-31T16:25:17.110Z,0.60
2023-03-31T16:27:49.393Z,0.87
2023-03-31T16:30:21.105Z,0.50
2023-03-31T16:33:02.194Z,0.70
2023-03-31T16:35:41.704Z,0.70
2023-03-31T16:38:11.383Z,0.70
2023-03-31T16:40:41.534Z,0.80
2023-03-31T16:43:17.351Z,1.67
2023-03-31T16:45:53.855Z,0.80
2023-03-31T16:48:24.679Z,0.70
2023-03-31T16:50:57.824Z,0.80
2023-03-31T16:53:31.452Z,0.63
2023-03-31T16:55:58.656Z,0.80
2023-03-31T16:58:28.962Z,0.90
2023-03-31T17:00:58.174Z,0.63
2023-03-31T17:03:26.082Z,1.20
2023-03-31T17:05:58.473Z,0.80
2023-03-31T17:08:27.651Z,0.90
2023-03-31T17:11:01.303Z,1.10
2023-03-31T17:13:28.389Z,0.70
2023-03-31T17:16:01.482Z,1.10
2023-03-31T17:18:40.393Z,1.53
2023-03-31T17:21:10.744Z,0.97
2023-03-31T17:23:39.330Z,1.40
2023-03-31T17:26:10.606Z,1.23
2023-03-31T17:28:37.735Z,1.03
2023-03-31T17:31:11.966Z,1.37
2023-03-31T17:33:40.623Z,1.30
2023-03-31T17:36:08.510Z,1.30
2023-03-31T17:38:35.715Z,1.30
2023-03-31T17:41:04.670Z,1.40
2023-03-31T17:43:31.748Z,0.80
2023-03-31T17:46:09.928Z,0.77
2023-03-31T17:48:39.148Z,0.80
2023-03-31T17:51:16.326Z,0.77
2023-03-31T17:53:46.092Z,0.80
2023-03-31T17:56:14.708Z,1.30
2023-03-31T17:58:41.729Z,0.83
2023-03-31T18:01:11.858Z,0.90
2023-03-31T18:03:39.178Z,1.20
2023-03-31T18:06:13.261Z,0.83
2023-03-31T18:08:41.625Z,0.97
2023-03-31T18:11:09.909Z,1.00
2023-03-31T18:13:37.670Z,0.90
2023-03-31T18:16:08.633Z,1.00
2023-03-31T18:18:36.985Z,1.10
2023-03-31T18:21:10.436Z,0.60
2023-03-31T18:23:38.273Z,0.70
2023-03-31T18:26:13.142Z,1.30
2023-03-31T18:28:40.865Z,1.27
2023-03-31T18:31:08.904Z,0.90
2023-03-31T18:33:36.520Z,1.13
2023-03-31T18:36:03.919Z,0.80
2023-03-31T18:38:31.360Z,0.90
2023-03-31T18:40:58.277Z,1.00
2023-03-31T18:43:26.387Z,1.00
2023-03-31T18:45:55.476Z,1.17
2023-03-31T18:48:23.378Z,1.40
2023-03-31T18:50:51.962Z,1.20
2023-03-31T18:53:20.785Z,1.33
2023-03-31T18:55:52.467Z,1.60
2023-03-31T18:58:19.658Z,2.40
2023-03-31T19:00:46.634Z,1.87
2023-03-31T19:03:13.972Z,2.10
2023-03-31T19:05:41.003Z,1.67
2023-03-31T19:08:08.362Z,1.70
2023-03-31T19:10:36.499Z,1.30
2023-03-31T19:13:04.060Z,0.97
2023-03-31T19:15:31.270Z,1.10
2023-03-31T19:17:58.370Z,1.20
2023-03-31T19:20:25.560Z,1.10
2023-03-31T19:22:52.729Z,0.70
2023-03-31T19:25:20.719Z,0.87
2023-03-31T19:27:48.349Z,1.00
2023-03-31T19:30:24.964Z,1.10
2023-03-31T19:32:52.130Z,0.87
2023-03-31T19:35:20.392Z,0.60
2023-03-31T19:37:48.074Z,0.73
2023-03-31T19:40:15.421Z,0.77
2023-03-31T19:42:44.175Z,0.83
2023-03-31T19:45:11.534Z,0.80
2023-03-31T19:47:38.733Z,0.90
2023-03-31T19:50:07.325Z,1.40
2023-03-31T19:52:35.341Z,1.70
2023-03-31T19:55:02.644Z,1.63
2023-03-31T19:57:29.723Z,1.30
2023-03-31T19:59:56.841Z,1.60
2023-03-31T20:02:24.078Z,1.53
2023-03-31T20:04:51.657Z,1.37
2023-03-31T20:07:18.891Z,1.37
2023-03-31T20:09:46.063Z,1.30
2023-03-31T20:12:13.213Z,1.23
2023-03-31T20:14:40.259Z,1.10
2023-03-31T20:17:07.566Z,1.37
2023-03-31T20:19:35.060Z,1.50
2023-03-31T20:22:02.118Z,1.80
2023-03-31T20:24:29.498Z,1.30
2023-03-31T20:26:56.892Z,1.20
2023-03-31T20:29:24.757Z,1.57
2023-03-31T20:31:51.916Z,1.37
2023-03-31T20:34:22.232Z,1.23
2023-03-31T20:36:51.417Z,1.37
2023-03-31T20:39:19.961Z,1.57
2023-03-31T20:41:47.366Z,1.83
2023-03-31T20:44:15.753Z,1.50
2023-03-31T20:46:44.032Z,1.40
2023-03-31T20:49:11.475Z,1.17
2023-03-31T20:51:39.010Z,1.30
2023-03-31T20:54:07.716Z,1.60
2023-03-31T20:56:38.342Z,1.93
2023-03-31T20:59:09.135Z,1.20
2023-03-31T21:01:37.353Z,1.63
2023-03-31T21:04:07.483Z,1.47
2023-03-31T21:06:41.017Z,1.60
2023-03-31T21:09:08.902Z,1.50
2023-03-31T21:11:35.876Z,1.33
2023-03-31T21:14:03.156Z,1.20
2023-03-31T21:16:30.109Z,1.37
2023-03-31T21:18:58.620Z,1.07
2023-03-31T21:21:27.518Z,1.37
2023-03-31T21:23:54.989Z,1.10
2023-03-31T21:26:22.911Z,1.47
2023-03-31T21:28:55.359Z,1.67
2023-03-31T21:31:24.915Z,1.40
2023-03-31T21:33:53.418Z,1.70
2023-03-31T21:36:22.687Z,1.50
2023-03-31T21:38:54.638Z,1.20
2023-03-31T21:41:30.740Z,1.30
2023-03-31T21:44:00.507Z,1.20
2023-03-31T21:46:30.972Z,1.30
2023-03-31T21:48:57.973Z,1.33
2023-03-31T21:51:25.977Z,0.90
2023-03-31T21:53:55.419Z,1.30
2023-03-31T21:56:25.072Z,1.10
2023-03-31T21:58:52.416Z,1.20
2023-03-31T22:01:19.815Z,1.77
2023-03-31T22:03:47.288Z,0.87
2023-03-31T22:06:14.234Z,1.03
2023-03-31T22:08:41.802Z,0.80
2023-03-31T22:11:12.244Z,1.10
2023-03-31T22:13:39.263Z,0.90
2023-03-31T22:16:21.753Z,0.93
2023-03-31T22:18:50.445Z,1.00
2023-03-31T22:21:27.098Z,0.90
2023-03-31T22:23:57.964Z,0.90
2023-03-31T22:26:27.214Z,1.27
2023-03-31T22:28:55.108Z,0.90
2023-03-31T22:31:22.615Z,0.90
2023-03-31T22:33:49.791Z,1.53
2023-03-31T22:36:16.724Z,0.97
2023-03-31T22:38:44.119Z,1.20
2023-03-31T22:41:11.116Z,1.23
2023-03-31T22:43:38.332Z,0.80
2023-03-31T22:46:07.440Z,0.90
2023-03-31T22:48:34.817Z,0.90
2023-03-31T22:51:11.868Z,0.80
2023-03-31T22:53:38.834Z,1.00
2023-03-31T22:56:10.012Z,0.70
2023-03-31T22:58:37.629Z,0.67
2023-03-31T23:01:06.754Z,0.87
2023-03-31T23:03:33.840Z,0.73
2023-03-31T23:06:05.732Z,0.60
2023-03-31T23:08:35.520Z,0.77
2023-03-31T23:11:05.173Z,0.70
2023-03-31T23:13:32.529Z,0.90
2023-03-31T23:16:13.207Z,0.70
2023-03-31T23:18:44.314Z,0.90
2023-03-31T23:21:12.199Z,1.00
2023-03-31T23:23:39.408Z,0.80
2023-03-31T23:26:06.932Z,0.83
2023-03-31T23:28:36.640Z,0.80
2023-03-31T23:31:03.911Z,0.90
2023-03-31T23:33:30.994Z,0.80
2023-03-31T23:36:04.571Z,0.93
2023-03-31T23:38:32.471Z,0.70
2023-03-31T23:41:00.818Z,0.80
2023-03-31T23:43:28.750Z,0.93
2023-03-31T23:45:56.458Z,0.70
2023-03-31T23:48:23.577Z,0.70
2023-03-31T23:50:50.979Z,0.70
2023-03-31T23:53:17.937Z,0.90
2023-03-31T23:55:57.888Z,0.70
2023-03-31T23:58:26.218Z,0.83
